Time;durP1;ratioP1;P1;durP2;ratioP2;P2;SDS_P1;SDS_P2;PMS_P1;PMS_P2;Temp;Humidity;BMP_temperature;BMP_pressure;BME280_temperature;BME280_humidity;BME280_pressure;Samples;Min_cycle;Max_cycle;Signal;HPM_P1;HPM_P2
2022/06/23 00:01:02;;;;;;;36.90;21.58;;;25.80;99.90;;;;;;5034310;28;20025;-68
2022/06/23 00:03:33;;;;;;;28.88;19.52;;;25.80;99.90;;;;;;5032184;28;20034;-69
2022/06/23 00:06:02;;;;;;;26.63;18.38;;;25.80;99.90;;;;;;5034685;28;20068;-68
2022/06/23 00:08:29;;;;;;;27.50;17.83;;;25.90;99.90;;;;;;5033656;28;20032;-69
2022/06/23 00:10:59;;;;;;;33.08;18.42;;;25.90;99.90;;;;;;5033722;28;20099;-69
2022/06/23 00:13:35;;;;;;;28.10;18.55;;;25.90;99.90;;;;;;5033638;28;20072;-68
2022/06/23 00:16:04;;;;;;;20.00;16.40;;;26.00;99.90;;;;;;5032920;28;20041;-69
2022/06/23 00:18:36;;;;;;;21.50;14.55;;;26.10;99.90;;;;;;5033623;28;20030;-69
2022/06/23 00:21:29;;;;;;;27.30;15.25;;;26.10;99.90;;;;;;5032420;28;20025;-67
2022/06/23 00:24:00;;;;;;;52.95;40.47;;;26.10;99.90;;;;;;5032672;28;20026;-69
2022/06/23 00:26:31;;;;;;;205.65;136.70;;;26.20;99.90;;;;;;5046259;28;20430;-69
2022/06/23 00:29:06;;;;;;;67.25;48.60;;;26.40;99.90;;;;;;5051717;28;20058;-68
2022/06/23 00:31:41;;;;;;;183.38;111.55;;;26.40;99.90;;;;;;5050959;28;20096;-69
2022/06/23 00:34:26;;;;;;;288.08;197.93;;;26.40;99.90;;;;;;5053435;28;20108;-69
2022/06/23 00:37:03;;;;;;;43.60;31.15;;;26.50;99.90;;;;;;5053171;28;20025;-69
2022/06/23 00:39:39;;;;;;;23.77;15.32;;;26.60;99.90;;;;;;5052697;28;20090;-68
2022/06/23 00:42:18;;;;;;;17.92;13.85;;;26.60;99.90;;;;;;5040450;28;20021;-69
2022/06/23 00:44:50;;;;;;;17.83;12.57;;;26.60;99.90;;;;;;5053217;28;20458;-66
2022/06/23 00:47:21;;;;;;;48.72;38.60;;;26.70;99.90;;;;;;5052633;28;20027;-68
2022/06/23 00:49:57;;;;;;;46.07;40.07;;;26.70;99.90;;;;;;5053123;28;20033;-68
2022/06/23 00:52:40;;;;;;;119.78;93.25;;;26.60;99.90;;;;;;5040158;28;20025;-68
2022/06/23 00:55:32;;;;;;;29.98;22.70;;;26.70;99.90;;;;;;5033410;28;20397;-68
2022/06/23 00:58:04;;;;;;;27.42;17.38;;;26.70;99.90;;;;;;5052156;28;20033;-68
2022/06/23 01:00:37;;;;;;;18.80;14.23;;;26.70;99.90;;;;;;5052598;28;20028;-68
2022/06/23 01:03:07;;;;;;;19.45;12.02;;;26.60;99.90;;;;;;5051821;28;20531;-68
2022/06/23 01:05:41;;;;;;;20.58;14.10;;;26.60;99.90;;;;;;5051001;28;20025;-69
2022/06/23 01:08:19;;;;;;;9.82;7.13;;;26.50;99.90;;;;;;5056868;28;20029;-67
2022/06/23 01:11:16;;;;;;;12.10;7.47;;;26.50;99.90;;;;;;5055376;28;20470;-67
2022/06/23 01:14:03;;;;;;;11.43;7.30;;;26.50;99.90;;;;;;4998293;28;20050;-64
2022/06/23 01:16:44;;;;;;;12.10;6.32;;;26.50;99.90;;;;;;4936783;29;20572;-64
2022/06/23 01:19:45;;;;;;;7.72;5.00;;;26.50;99.90;;;;;;4949135;28;20257;-64
2022/06/23 01:22:40;;;;;;;6.70;5.32;;;26.50;99.90;;;;;;4951194;29;20035;-68
2022/06/23 01:25:23;;;;;;;8.60;5.85;;;26.50;99.90;;;;;;4913369;29;20036;-68
2022/06/23 01:28:05;;;;;;;6.03;4.10;;;26.60;99.90;;;;;;4906104;29;20036;-67
2022/06/23 01:30:35;;;;;;;;;;;26.60;99.90;;;;;;4906664;29;20087;-67
2022/06/23 01:33:07;;;;;;;6.65;4.05;;;26.70;99.90;;;;;;4920261;29;19911;-68
2022/06/23 01:35:47;;;;;;;3.80;3.40;;;26.70;99.90;;;;;;4911940;29;20293;-67
2022/06/23 01:38:31;;;;;;;48.90;35.17;;;26.80;99.90;;;;;;4906688;29;20414;-67
2022/06/23 01:41:13;;;;;;;10.95;6.35;;;26.90;99.90;;;;;;4908904;29;20055;-69
2022/06/23 01:44:00;;;;;;;7.40;3.92;;;26.90;99.90;;;;;;4909385;29;20043;-68
2022/06/23 01:46:36;;;;;;;5.32;3.65;;;27.00;99.90;;;;;;4910852;29;20032;-66
2022/06/23 01:49:03;;;;;;;9.10;3.80;;;27.00;99.90;;;;;;4910146;29;20039;-67
2022/06/23 01:51:52;;;;;;;6.00;3.55;;;27.10;99.90;;;;;;4937165;29;20654;-66
2022/06/23 01:54:21;;;;;;;6.50;3.95;;;27.20;99.90;;;;;;4944509;29;20130;-66
2022/06/23 01:56:52;;;;;;;6.70;4.13;;;27.30;99.90;;;;;;4972890;28;20038;-65
2022/06/23 01:59:49;;;;;;;4.65;3.63;;;27.50;99.90;;;;;;4992542;28;20026;-66
2022/06/23 02:02:25;;;;;;;5.28;3.58;;;27.50;99.90;;;;;;4986139;28;20312;-67
2022/06/23 02:05:02;;;;;;;5.57;3.53;;;27.60;99.90;;;;;;4979103;28;20031;-67
2022/06/23 02:07:49;;;;;;;10.85;3.78;;;27.60;99.90;;;;;;4987507;28;20081;-64
2022/06/23 02:10:29;;;;;;;6.80;3.70;;;27.70;99.90;;;;;;4980883;28;20267;-68
2022/06/23 02:13:07;;;;;;;7.72;3.85;;;27.80;99.90;;;;;;5029693;28;20036;-65
2022/06/23 02:15:56;;;;;;;8.18;4.25;;;27.80;99.90;;;;;;5068365;28;20036;-68
2022/06/23 02:18:33;;;;;;;6.30;3.83;;;27.80;99.90;;;;;;5072960;28;20099;-65
2022/06/23 02:21:04;;;;;;;5.18;3.70;;;27.90;99.90;;;;;;5074971;28;20028;-67
2022/06/23 02:23:41;;;;;;;6.13;4.37;;;27.90;99.90;;;;;;5072964;28;20025;-66
2022/06/23 02:26:26;;;;;;;8.63;4.75;;;28.00;99.90;;;;;;5068206;28;20056;-66
2022/06/23 02:28:56;;;;;;;11.23;5.53;;;28.00;99.90;;;;;;5071524;28;20024;-66
2022/06/23 02:31:30;;;;;;;7.88;5.30;;;28.00;99.90;;;;;;5062578;22;20160;-67
2022/06/23 02:34:03;;;;;;;6.85;5.25;;;27.90;99.90;;;;;;5047038;28;20021;-67
2022/06/23 02:36:56;;;;;;;8.48;5.70;;;27.90;99.90;;;;;;5048444;28;20485;-67
2022/06/23 02:39:31;;;;;;;8.95;6.00;;;27.90;99.90;;;;;;4986298;28;20071;-67
2022/06/23 02:42:03;;;;;;;9.73;5.45;;;27.90;99.90;;;;;;4984984;28;20121;-68
2022/06/23 02:44:51;;;;;;;8.98;4.55;;;27.80;99.90;;;;;;4982435;28;20039;-67
2022/06/23 02:47:50;;;;;;;7.60;4.65;;;27.70;99.90;;;;;;4984797;28;20035;-63
2022/06/23 02:50:27;;;;;;;7.82;4.13;;;27.70;99.90;;;;;;4988897;28;20022;-63
2022/06/23 02:53:04;;;;;;;29.45;23.80;;;27.70;99.90;;;;;;4985370;28;20038;-62
2022/06/23 02:55:51;;;;;;;33.90;21.40;;;27.70;99.90;;;;;;4986378;28;20042;-62
2022/06/23 02:58:39;;;;;;;95.50;67.30;;;27.70;99.90;;;;;;4993083;28;20023;-65
2022/06/23 03:01:19;;;;;;;81.70;58.80;;;27.70;99.90;;;;;;4989922;28;20134;-64
2022/06/23 03:04:10;;;;;;;62.45;46.65;;;27.70;99.90;;;;;;4998755;28;20022;-64
2022/06/23 03:06:49;;;;;;;10.52;5.20;;;27.70;99.90;;;;;;4915978;29;20123;-65
2022/06/23 03:09:33;;;;;;;8.80;3.92;;;27.70;99.90;;;;;;4916231;29;20044;-67
2022/06/23 03:12:08;;;;;;;8.82;4.15;;;27.70;99.90;;;;;;4910481;29;20036;-67
2022/06/23 03:14:52;;;;;;;8.82;4.15;;;27.70;99.90;;;;;;4916338;29;20048;-70
2022/06/23 03:17:21;;;;;;;10.60;5.05;;;27.80;99.90;;;;;;4908669;29;20036;-69
2022/06/23 03:20:02;;;;;;;5.93;4.00;;;27.80;99.90;;;;;;4915902;29;20426;-68
2022/06/23 03:23:08;;;;;;;5.55;4.10;;;27.80;99.90;;;;;;4934556;29;20039;-67
2022/06/23 03:25:48;;;;;;;9.50;4.00;;;27.80;99.90;;;;;;4862700;29;20033;-66
2022/06/23 03:28:45;;;;;;;7.28;4.47;;;27.80;99.90;;;;;;4876619;29;20174;-68
2022/06/23 03:31:41;;;;;;;9.30;4.88;;;27.70;99.90;;;;;;4852126;29;20041;-69
2022/06/23 03:34:19;;;;;;;7.50;4.80;;;27.70;99.90;;;;;;4865709;29;20044;-69
2022/06/23 03:37:07;;;;;;;9.30;5.45;;;27.80;99.90;;;;;;4860536;29;20045;-67
2022/06/23 03:42:23;;;;;;;10.60;5.78;;;27.80;99.90;;;;;;4847412;29;20030;-67
2022/06/23 03:45:19;;;;;;;9.85;6.00;;;27.80;99.90;;;;;;4905031;29;20052;-68
2022/06/23 03:47:58;;;;;;;10.25;5.13;;;27.80;99.90;;;;;;4880727;29;20072;-67
2022/06/23 03:50:30;;;;;;;9.35;5.05;;;27.80;99.90;;;;;;4877002;29;20047;-68
2022/06/23 03:53:02;;;;;;;10.45;4.82;;;27.80;99.90;;;;;;4882387;29;20128;-68
2022/06/23 03:55:32;;;;;;;7.10;4.90;;;27.80;99.90;;;;;;4880836;29;20112;-69
2022/06/23 03:58:10;;;;;;;7.72;5.03;;;27.80;99.90;;;;;;4867983;29;20440;-68
2022/06/23 04:00:42;;;;;;;7.47;3.80;;;27.70;99.90;;;;;;4876272;29;20052;-67
2022/06/23 04:03:22;;;;;;;7.90;4.60;;;27.70;99.90;;;;;;4877093;29;20053;-67
2022/06/23 04:05:57;;;;;;;7.80;4.13;;;27.70;99.90;;;;;;4886418;29;20030;-67
2022/06/23 04:08:27;;;;;;;6.70;4.00;;;27.70;99.90;;;;;;4887607;29;20040;-66
2022/06/23 04:10:58;;;;;;;88.13;69.53;;;27.70;99.90;;;;;;4876625;29;20044;-68
2022/06/23 04:13:45;;;;;;;94.43;84.55;;;27.80;99.90;;;;;;4880087;29;20040;-67
2022/06/23 04:16:13;;;;;;;14.07;10.90;;;27.90;99.90;;;;;;4933262;29;20032;-68
2022/06/23 04:18:45;;;;;;;46.65;35.58;;;27.90;99.90;;;;;;4933597;29;20929;-67
2022/06/23 04:21:21;;;;;;;105.25;77.25;;;27.90;99.90;;;;;;4934834;29;20036;-67
2022/06/23 04:23:51;;;;;;;16.00;13.05;;;28.00;99.90;;;;;;4933135;29;20031;-68
2022/06/23 04:26:25;;;;;;;11.30;7.18;;;28.00;99.90;;;;;;4933957;29;20071;-69
2022/06/23 04:28:53;;;;;;;12.77;6.20;;;28.10;99.90;;;;;;4986757;28;20057;-68
2022/06/23 04:31:42;;;;;;;8.48;5.32;;;28.10;99.90;;;;;;5022886;28;20132;-66
2022/06/23 04:34:22;;;;;;;7.25;4.97;;;28.20;99.90;;;;;;5023995;28;20069;-67
2022/06/23 04:36:49;;;;;;;14.75;8.20;;;28.10;99.90;;;;;;5029500;28;20521;-67
2022/06/23 04:39:40;;;;;;;11.00;5.07;;;28.20;99.90;;;;;;5068352;28;20108;-67
2022/06/23 04:42:23;;;;;;;8.48;4.78;;;28.20;99.90;;;;;;5071804;28;20120;-67
2022/06/23 04:44:54;;;;;;;12.15;5.25;;;28.30;99.90;;;;;;5072047;28;20020;-67
2022/06/23 04:47:32;;;;;;;133.05;92.22;;;28.20;99.90;;;;;;5069789;28;20103;-68
2022/06/23 04:50:12;;;;;;;12.02;8.20;;;28.30;99.90;;;;;;5070948;28;20465;-71
2022/06/23 04:52:48;;;;;;;10.68;6.88;;;28.30;99.90;;;;;;5068801;28;20032;-68
2022/06/23 04:55:26;;;;;;;45.58;29.30;;;28.30;99.90;;;;;;5070267;28;20521;-68
2022/06/23 04:58:16;;;;;;;40.38;27.23;;;28.30;99.90;;;;;;5070627;28;20032;-67
2022/06/23 05:00:56;;;;;;;18.20;9.50;;;28.30;99.90;;;;;;5070737;28;20021;-67
2022/06/23 05:03:44;;;;;;;12.73;6.72;;;28.40;99.90;;;;;;5071520;28;20017;-70
2022/06/23 05:06:18;;;;;;;6.70;5.15;;;28.40;99.90;;;;;;5071086;28;20089;-69
2022/06/23 05:08:47;;;;;;;6.60;4.50;;;28.40;99.90;;;;;;5069190;28;20024;-68
2022/06/23 05:11:19;;;;;;;5.25;3.97;;;28.40;99.90;;;;;;5070389;28;20048;-69
2022/06/23 05:13:50;;;;;;;6.28;4.35;;;28.40;99.90;;;;;;5071448;28;20020;-69
2022/06/23 05:16:27;;;;;;;5.18;4.25;;;28.40;99.90;;;;;;5070671;28;20028;-68
2022/06/23 05:18:58;;;;;;;7.93;3.95;;;28.50;99.90;;;;;;5072620;28;20024;-68
2022/06/23 05:21:46;;;;;;;7.63;5.00;;;28.50;99.90;;;;;;5071511;28;20028;-68
2022/06/23 05:24:20;;;;;;;8.23;5.47;;;28.50;99.90;;;;;;5068949;28;20031;-68
2022/06/23 05:26:58;;;;;;;13.55;5.90;;;28.60;99.90;;;;;;5068433;28;20082;-68
2022/06/23 05:29:35;;;;;;;10.43;5.55;;;28.60;99.90;;;;;;5068343;28;20073;-66
2022/06/23 05:32:15;;;;;;;7.32;4.97;;;28.60;99.90;;;;;;5045785;28;20512;-68
2022/06/23 05:34:51;;;;;;;7.13;5.32;;;28.60;99.90;;;;;;5034531;28;20043;-66
2022/06/23 05:37:28;;;;;;;7.70;5.35;;;28.60;99.90;;;;;;5048840;28;20062;-66
2022/06/23 05:40:28;;;;;;;6.78;5.47;;;28.60;99.90;;;;;;5034190;28;20087;-66
2022/06/23 05:43:00;;;;;;;11.05;5.13;;;28.60;99.90;;;;;;4960845;28;20034;-67
2022/06/23 05:45:38;;;;;;;7.35;5.28;;;28.70;99.90;;;;;;4985800;28;20027;-66
2022/06/23 05:48:07;;;;;;;11.65;6.10;;;28.80;99.90;;;;;;4977697;28;20037;-66
2022/06/23 05:50:48;;;;;;;11.27;5.57;;;28.80;99.90;;;;;;4977014;28;20066;-68
2022/06/23 05:53:37;;;;;;;9.88;5.78;;;28.80;99.90;;;;;;4990548;28;20030;-67
2022/06/23 05:56:25;;;;;;;215.13;155.00;;;28.80;99.90;;;;;;4990509;28;20034;-68
2022/06/23 05:59:01;;;;;;;350.00;248.48;;;28.90;99.90;;;;;;4984137;28;20027;-68
2022/06/23 06:01:45;;;;;;;29.30;21.98;;;28.90;99.90;;;;;;4984658;28;20117;-68
2022/06/23 06:04:29;;;;;;;27.90;19.40;;;28.80;99.90;;;;;;4990473;28;20429;-66
2022/06/23 06:06:58;;;;;;;16.90;11.85;;;29.00;99.90;;;;;;4984287;28;20038;-67
2022/06/23 06:09:41;;;;;;;46.72;35.17;;;29.00;99.90;;;;;;4986826;28;20037;-65
2022/06/23 06:12:22;;;;;;;33.25;22.75;;;29.00;99.90;;;;;;4990205;28;20274;-70
2022/06/23 06:15:17;;;;;;;15.60;8.48;;;28.90;99.90;;;;;;5051782;28;20060;-64
2022/06/23 06:17:44;;;;;;;16.55;8.27;;;28.90;99.90;;;;;;4978643;28;20074;-65
2022/06/23 06:20:13;;;;;;;12.98;8.32;;;29.00;99.90;;;;;;4981605;28;20038;-65
2022/06/23 06:22:40;;;;;;;14.82;8.82;;;29.00;99.90;;;;;;4955990;28;20038;-65
2022/06/23 06:25:24;;;;;;;18.15;10.40;;;29.00;99.90;;;;;;4981832;28;20034;-65
2022/06/23 06:27:52;;;;;;;13.05;8.57;;;29.00;99.90;;;;;;4975403;28;20552;-64
2022/06/23 06:30:24;;;;;;;16.83;9.77;;;29.00;99.90;;;;;;4978452;28;20074;-64
2022/06/23 06:32:51;;;;;;;;;;;29.00;99.90;;;;;;4972902;28;20030;-64
2022/06/23 06:35:19;;;;;;;18.38;11.82;;;29.10;99.90;;;;;;4971570;28;19917;-65
2022/06/23 06:37:56;;;;;;;19.65;12.75;;;29.10;99.90;;;;;;4973964;28;20062;-64
2022/06/23 06:40:23;;;;;;;35.88;30.10;;;29.00;99.90;;;;;;4974125;28;20660;-64
2022/06/23 06:42:55;;;;;;;31.17;20.30;;;29.00;99.90;;;;;;4972613;28;20023;-67
2022/06/23 06:45:25;;;;;;;;;;;29.00;99.90;;;;;;4982566;28;20045;-65
2022/06/23 06:47:51;;;;;;;29.42;21.27;;;29.00;99.90;;;;;;4968331;28;19916;-64
2022/06/23 06:50:24;;;;;;;30.85;20.30;;;29.00;99.90;;;;;;4972288;28;20038;-64
2022/06/23 06:52:52;;;;;;;26.23;17.15;;;29.10;99.90;;;;;;4967877;28;20035;-67
2022/06/23 06:55:29;;;;;;;21.30;13.43;;;29.10;99.90;;;;;;4970017;28;20026;-65
2022/06/23 06:58:06;;;;;;;21.63;13.60;;;29.10;99.90;;;;;;4972285;28;20030;-65
2022/06/23 07:00:40;;;;;;;32.30;15.52;;;29.10;99.90;;;;;;4984600;28;20449;-64
2022/06/23 07:03:11;;;;;;;32.35;17.45;;;29.10;99.90;;;;;;5033482;28;20021;-65
2022/06/23 07:05:43;;;;;;;31.63;12.03;;;29.10;99.90;;;;;;5054771;28;20025;-66
2022/06/23 07:08:29;;;;;;;;;;;29.10;99.90;;;;;;5051188;28;20025;-66
2022/06/23 07:11:02;;;;;;;18.65;12.55;;;29.20;99.90;;;;;;4972638;28;19914;-65
2022/06/23 07:13:59;;;;;;;15.52;9.15;;;29.30;99.90;;;;;;4969722;28;20397;-64
2022/06/23 07:16:32;;;;;;;13.65;7.47;;;29.20;99.90;;;;;;4967415;28;20049;-67
2022/06/23 07:19:15;;;;;;;18.23;8.98;;;29.20;99.90;;;;;;4968669;28;20035;-66
2022/06/23 07:21:47;;;;;;;13.05;7.95;;;29.10;99.90;;;;;;4948445;28;20047;-67
2022/06/23 07:24:25;;;;;;;10.82;6.80;;;29.10;99.90;;;;;;4967549;28;20087;-65
2022/06/23 07:27:00;;;;;;;13.40;6.68;;;29.20;99.90;;;;;;4971706;28;20484;-67
2022/06/23 07:29:44;;;;;;;17.88;12.43;;;29.20;99.90;;;;;;4973595;28;20091;-65
2022/06/23 07:32:35;;;;;;;21.40;13.98;;;29.20;99.90;;;;;;4989674;28;20034;-64
2022/06/23 07:35:07;;;;;;;29.58;18.42;;;29.20;99.90;;;;;;4960242;28;20074;-66
2022/06/23 07:37:43;;;;;;;27.35;16.27;;;29.20;99.90;;;;;;4987875;28;20100;-66
2022/06/23 07:40:11;;;;;;;24.30;15.02;;;29.20;99.90;;;;;;4992781;28;20460;-66
2022/06/23 07:42:47;;;;;;;20.80;14.38;;;29.20;99.90;;;;;;4985565;28;20046;-66
2022/06/23 07:45:41;;;;;;;22.00;15.43;;;29.20;99.90;;;;;;4969173;28;20439;-67
2022/06/23 07:48:07;;;;;;;29.45;23.70;;;29.20;99.90;;;;;;5022498;28;20085;-67
2022/06/23 07:50:34;;;;;;;50.92;30.08;;;29.20;99.90;;;;;;5054266;28;20499;-65
2022/06/23 07:53:01;;;;;;;45.80;24.63;;;29.10;99.90;;;;;;5051851;28;20131;-67
2022/06/23 07:55:39;;;;;;;39.88;22.48;;;29.10;99.90;;;;;;5043272;28;20049;-65
2022/06/23 07:58:07;;;;;;;22.45;13.63;;;29.20;99.90;;;;;;5050035;28;20112;-66
2022/06/23 08:00:38;;;;;;;27.98;16.63;;;29.20;99.90;;;;;;5031453;28;20034;-65
2022/06/23 08:03:12;;;;;;;26.45;13.40;;;29.10;99.90;;;;;;5044002;28;20021;-65
2022/06/23 08:05:48;;;;;;;15.43;9.43;;;29.10;99.90;;;;;;5036508;28;20501;-66
2022/06/23 08:08:20;;;;;;;18.83;9.45;;;29.10;99.90;;;;;;5047929;28;20044;-65
2022/06/23 08:12:52;;;;;;;16.92;9.05;;;29.10;99.90;;;;;;5047054;28;20029;-65
2022/06/23 08:13:37;;;;;;;15.88;9.93;;;29.10;99.90;;;;;;5050531;28;20353;-66
2022/06/23 08:19:14;;;;;;;14.25;8.60;;;29.10;99.90;;;;;;5042830;28;20025;-64
2022/06/23 08:21:44;;;;;;;22.88;10.43;;;29.10;99.90;;;;;;5047315;28;20017;-65
2022/06/23 08:24:18;;;;;;;18.02;10.25;;;29.10;99.90;;;;;;5048959;28;20052;-64
2022/06/23 08:26:52;;;;;;;13.15;7.55;;;29.10;99.90;;;;;;5039732;28;20036;-64
2022/06/23 08:29:23;;;;;;;14.98;9.35;;;29.10;99.90;;;;;;5043311;28;20041;-64
2022/06/23 08:31:50;;;;;;;16.45;10.40;;;29.00;99.90;;;;;;5043474;28;20531;-65
2022/06/23 08:34:17;;;;;;;14.13;8.25;;;29.00;99.90;;;;;;5046035;28;20474;-66
2022/06/23 08:36:47;;;;;;;10.70;6.00;;;29.00;99.90;;;;;;5043421;28;20029;-65
2022/06/23 08:39:24;;;;;;;14.88;5.68;;;29.00;99.90;;;;;;5033391;28;20028;-66
2022/06/23 08:41:55;;;;;;;8.88;5.20;;;29.00;99.90;;;;;;5050049;28;20029;-65
2022/06/23 08:44:32;;;;;;;9.02;5.57;;;28.90;99.90;;;;;;5044673;28;20089;-67
2022/06/23 08:47:05;;;;;;;9.00;5.90;;;28.90;99.90;;;;;;5046674;28;20033;-67
2022/06/23 08:49:33;;;;;;;9.52;6.72;;;28.90;99.90;;;;;;5048440;28;20055;-66
2022/06/23 08:52:11;;;;;;;14.13;7.38;;;28.90;99.90;;;;;;5045384;28;20383;-68
2022/06/23 08:54:42;;;;;;;21.25;13.48;;;28.90;99.90;;;;;;5035239;28;20036;-66
2022/06/23 08:57:27;;;;;;;48.63;36.13;;;28.80;99.90;;;;;;5034059;28;20029;-68
2022/06/23 09:00:02;;;;;;;54.15;35.80;;;28.70;99.90;;;;;;5049448;28;20048;-65
2022/06/23 09:02:49;;;;;;;29.00;19.25;;;28.70;99.90;;;;;;5047349;28;20484;-66
2022/06/23 09:05:26;;;;;;;42.03;29.80;;;28.70;99.90;;;;;;5052641;28;20025;-66
2022/06/23 09:08:14;;;;;;;35.50;23.83;;;28.70;99.90;;;;;;5051169;28;20033;-68
2022/06/23 09:10:43;;;;;;;11.30;6.70;;;28.70;99.90;;;;;;5047180;28;20052;-66
2022/06/23 09:13:19;;;;;;;30.30;21.55;;;28.60;99.90;;;;;;5051217;28;20024;-65
2022/06/23 09:15:54;;;;;;;10.02;6.35;;;28.60;99.90;;;;;;5049359;28;20029;-64
2022/06/23 09:18:29;;;;;;;9.93;5.15;;;28.70;99.90;;;;;;5054131;28;20033;-68
2022/06/23 09:21:25;;;;;;;10.10;5.20;;;28.70;99.90;;;;;;5055054;28;20064;-67
2022/06/23 09:24:13;;;;;;;12.75;6.18;;;28.70;99.90;;;;;;5018364;28;20029;-65
2022/06/23 09:26:49;;;;;;;41.28;26.75;;;28.60;99.90;;;;;;5050270;28;20556;-67
2022/06/23 09:29:56;;;;;;;20.52;10.80;;;28.60;99.90;;;;;;5055033;28;20029;-66
2022/06/23 09:32:38;;;;;;;27.58;17.45;;;28.60;99.90;;;;;;5052413;28;20032;-67
2022/06/23 09:35:14;;;;;;;35.97;26.23;;;28.60;99.90;;;;;;5053977;28;20025;-66
2022/06/23 09:37:52;;;;;;;28.45;21.75;;;28.60;99.90;;;;;;5052384;28;20035;-71
2022/06/23 09:40:49;;;;;;;19.48;14.60;;;28.50;99.90;;;;;;5053975;28;20078;-70
2022/06/23 09:43:24;;;;;;;11.07;8.18;;;28.50;99.90;;;;;;5052736;28;20049;-70
2022/06/23 09:45:58;;;;;;;19.45;9.75;;;28.60;99.90;;;;;;5052147;28;20059;-71
2022/06/23 09:48:46;;;;;;;15.13;8.77;;;28.60;99.90;;;;;;5053783;28;20036;-69
2022/06/23 09:51:16;;;;;;;36.97;27.42;;;28.60;99.90;;;;;;5053996;28;20028;-69
2022/06/23 09:54:21;;;;;;;57.17;41.50;;;28.60;99.90;;;;;;5054769;28;20044;-69
2022/06/23 09:57:13;;;;;;;12.93;8.23;;;28.60;99.90;;;;;;5055667;28;20108;-69
2022/06/23 09:59:46;;;;;;;12.25;7.47;;;28.60;99.90;;;;;;5040876;28;20017;-70
2022/06/23 10:02:24;;;;;;;17.00;9.85;;;28.60;99.90;;;;;;5051101;28;20032;-74
2022/06/23 10:05:00;;;;;;;13.45;6.55;;;28.50;99.90;;;;;;5052027;28;20025;-70
2022/06/23 10:07:45;;;;;;;9.77;6.03;;;28.50;99.90;;;;;;5053067;28;20378;-69
2022/06/23 10:10:51;;;;;;;14.25;6.00;;;28.50;99.90;;;;;;5055100;28;20048;-70
2022/06/23 10:13:37;;;;;;;11.68;6.65;;;28.50;99.90;;;;;;5053018;28;20025;-70
2022/06/23 10:16:10;;;;;;;13.50;8.35;;;28.50;99.90;;;;;;5052961;28;20032;-70
2022/06/23 10:18:46;;;;;;;14.77;8.93;;;28.50;99.90;;;;;;5040858;28;20487;-70
2022/06/23 10:21:21;;;;;;;19.10;10.00;;;28.40;99.90;;;;;;5052510;28;20075;-69
2022/06/23 10:24:02;;;;;;;19.58;11.48;;;28.30;99.90;;;;;;5050399;28;20385;-70
2022/06/23 10:26:33;;;;;;;18.30;10.60;;;28.30;99.90;;;;;;5053363;28;20481;-66
2022/06/23 10:29:25;;;;;;;17.95;9.48;;;28.30;99.90;;;;;;5054579;28;20559;-66
2022/06/23 10:32:12;;;;;;;14.40;8.73;;;28.30;99.90;;;;;;5079085;28;20127;-66
2022/06/23 10:35:11;;;;;;;24.38;12.95;;;28.30;99.90;;;;;;5084819;28;20043;-66
2022/06/23 10:38:06;;;;;;;26.63;11.80;;;28.20;99.90;;;;;;5001827;28;20050;-65
2022/06/23 10:41:01;;;;;;;18.20;10.00;;;28.10;99.90;;;;;;5002871;28;20042;-66
2022/06/23 10:44:02;;;;;;;19.85;10.55;;;28.10;99.90;;;;;;5001699;28;20484;-67
2022/06/23 10:46:38;;;;;;;69.88;58.70;;;28.10;99.90;;;;;;5004112;28;20026;-67
2022/06/23 10:49:05;;;;;;;112.43;101.07;;;28.00;99.90;;;;;;5000760;28;20033;-67
2022/06/23 10:51:51;;;;;;;25.15;17.38;;;28.10;99.90;;;;;;5002385;28;20139;-66
2022/06/23 10:54:28;;;;;;;29.05;19.77;;;28.10;99.90;;;;;;5000821;28;20030;-68
2022/06/23 10:57:16;;;;;;;25.23;14.88;;;28.10;99.90;;;;;;4995820;28;20065;-66
2022/06/23 11:00:10;;;;;;;22.75;11.07;;;28.10;99.90;;;;;;4930120;29;20090;-65
2022/06/23 11:02:46;;;;;;;29.17;10.77;;;28.10;99.90;;;;;;4929536;29;20032;-65
2022/06/23 11:05:22;;;;;;;72.93;49.63;;;28.20;99.90;;;;;;4927000;29;20126;-67
2022/06/23 11:08:11;;;;;;;34.03;21.60;;;28.10;99.90;;;;;;4928145;29;20032;-66
2022/06/23 11:11:04;;;;;;;36.53;25.15;;;28.20;99.90;;;;;;4927351;29;20039;-65
2022/06/23 11:13:31;;;;;;;57.58;41.80;;;28.20;99.90;;;;;;4930315;29;20049;-65
2022/06/23 11:16:37;;;;;;;35.47;21.10;;;28.20;99.90;;;;;;4924150;29;20032;-65
2022/06/23 11:19:33;;;;;;;23.27;15.75;;;28.20;99.90;;;;;;4924053;29;20034;-67
2022/06/23 11:22:40;;;;;;;81.22;59.33;;;28.20;99.90;;;;;;4964981;28;20070;-66
2022/06/23 11:25:18;;;;;;;95.70;69.10;;;28.20;99.90;;;;;;4966772;28;20106;-65
2022/06/23 11:28:07;;;;;;;131.50;101.18;;;28.20;99.90;;;;;;4973383;28;20074;-65
2022/06/23 11:30:45;;;;;;;34.58;26.10;;;28.20;99.90;;;;;;4958924;28;20546;-66
2022/06/23 11:33:47;;;;;;;27.88;18.45;;;28.20;99.90;;;;;;4966604;28;20419;-65
2022/06/23 11:36:21;;;;;;;20.55;9.52;;;28.20;99.90;;;;;;4988385;28;20535;-66
2022/06/23 11:39:00;;;;;;;14.30;9.20;;;28.10;99.90;;;;;;5043849;28;20040;-66
2022/06/23 11:41:54;;;;;;;27.80;15.88;;;28.10;99.90;;;;;;5046312;28;20041;-69
2022/06/23 11:44:33;;;;;;;33.45;22.45;;;28.10;99.90;;;;;;5049548;28;20024;-67
2022/06/23 11:47:15;;;;;;;70.70;57.17;;;28.00;99.90;;;;;;5045384;28;20029;-70
2022/06/23 11:50:11;;;;;;;60.17;43.80;;;28.00;99.90;;;;;;5050571;28;20033;-71
2022/06/23 11:53:05;;;;;;;26.23;16.85;;;28.10;99.90;;;;;;5050713;28;20028;-70
2022/06/23 11:55:55;;;;;;;36.22;24.63;;;28.00;99.90;;;;;;5050349;28;20025;-70
2022/06/23 11:58:41;;;;;;;36.53;24.25;;;28.00;99.90;;;;;;5048814;28;20433;-69
2022/06/23 12:01:10;;;;;;;42.80;28.25;;;27.90;99.90;;;;;;5043653;28;20024;-69
2022/06/23 12:03:39;;;;;;;20.55;13.95;;;27.90;99.90;;;;;;5048065;28;20385;-69
2022/06/23 12:06:35;;;;;;;21.60;12.85;;;27.90;99.90;;;;;;5048493;28;20177;-70
2022/06/23 12:09:14;;;;;;;23.00;11.40;;;27.90;99.90;;;;;;4987207;28;20384;-69
2022/06/23 12:11:41;;;;;;;31.02;17.02;;;27.80;99.90;;;;;;4969175;28;20039;-69
2022/06/23 12:14:09;;;;;;;30.20;21.95;;;27.90;99.90;;;;;;4988251;28;20038;-71
2022/06/23 12:16:45;;;;;;;35.20;23.83;;;27.90;99.90;;;;;;4996335;28;20060;-70
2022/06/23 12:19:18;;;;;;;73.93;48.05;;;27.90;99.90;;;;;;4989573;28;20451;-68
2022/06/23 12:22:02;;;;;;;63.25;43.35;;;27.90;99.90;;;;;;4986006;28;20029;-69
2022/06/23 12:25:05;;;;;;;38.13;24.55;;;27.90;99.90;;;;;;4990245;28;20026;-69
2022/06/23 12:27:50;;;;;;;54.95;37.70;;;27.90;99.90;;;;;;4992279;28;20039;-68
2022/06/23 12:30:19;;;;;;;178.65;139.23;;;27.80;99.90;;;;;;5002137;28;20052;-68
2022/06/23 12:33:11;;;;;;;69.40;52.70;;;27.80;99.90;;;;;;5013807;28;20216;-68
2022/06/23 12:36:10;;;;;;;60.23;45.57;;;27.90;99.90;;;;;;5004830;28;20325;-67
2022/06/23 12:39:02;;;;;;;40.42;26.05;;;27.90;99.90;;;;;;5014087;28;20354;-68
2022/06/23 12:41:52;;;;;;;25.67;13.93;;;27.90;99.90;;;;;;4955095;28;20128;-67
2022/06/23 12:44:42;;;;;;;35.97;23.55;;;27.80;99.90;;;;;;4973198;28;20403;-69
2022/06/23 12:47:16;;;;;;;26.85;18.55;;;27.80;99.90;;;;;;5017957;28;20053;-69
2022/06/23 12:50:03;;;;;;;27.20;17.85;;;27.80;99.90;;;;;;5016818;28;20022;-68
2022/06/23 12:52:45;;;;;;;28.08;20.13;;;27.80;99.90;;;;;;5009756;28;20030;-67
2022/06/23 12:55:27;;;;;;;23.07;10.50;;;27.80;99.90;;;;;;5020626;28;20526;-71
2022/06/23 12:58:01;;;;;;;17.05;7.95;;;27.80;99.90;;;;;;5014958;28;20850;-68
2022/06/23 13:00:38;;;;;;;14.07;7.55;;;27.80;99.90;;;;;;5014814;28;20069;-68
2022/06/23 13:03:19;;;;;;;55.45;39.97;;;27.80;99.90;;;;;;5019165;28;20029;-70
2022/06/23 13:05:56;;;;;;;113.68;86.38;;;27.80;99.90;;;;;;5026501;28;20049;-67
2022/06/23 13:08:28;;;;;;;37.00;27.73;;;27.70;99.90;;;;;;5009438;28;20049;-69
2022/06/23 13:11:02;;;;;;;69.97;50.28;;;27.70;99.90;;;;;;5013557;28;20034;-68
2022/06/23 13:13:31;;;;;;;43.72;32.13;;;27.70;99.90;;;;;;5074893;28;20020;-69
2022/06/23 13:16:03;;;;;;;50.13;30.35;;;27.70;99.90;;;;;;5075353;28;20016;-68
2022/06/23 13:18:31;;;;;;;;;;;27.70;99.90;;;;;;5075886;28;20020;-68
2022/06/23 13:20:59;;;;;;;27.27;15.65;;;27.70;99.90;;;;;;5074313;28;19906;-68
2022/06/23 13:23:35;;;;;;;29.35;19.95;;;27.70;99.90;;;;;;5075762;28;20027;-68
2022/06/23 13:26:18;;;;;;;93.00;62.33;;;27.70;99.90;;;;;;5069615;28;20060;-68
2022/06/23 13:28:47;;;;;;;65.05;43.45;;;27.70;99.90;;;;;;5074692;28;20095;-67
2022/06/23 13:31:18;;;;;;;123.53;86.15;;;27.80;99.90;;;;;;5058804;28;20044;-68
2022/06/23 13:33:46;;;;;;;114.40;85.40;;;27.70;99.90;;;;;;5075843;28;20043;-68
2022/06/23 13:36:47;;;;;;;77.00;58.90;;;27.80;99.90;;;;;;5074044;28;20332;-67
2022/06/23 13:39:21;;;;;;;55.28;41.33;;;27.70;99.90;;;;;;4979859;28;20042;-69
2022/06/23 13:42:13;;;;;;;48.08;33.88;;;27.70;99.90;;;;;;4975581;28;20034;-68